createdAt,value
2023-02-09T00:00:02.798Z,-2.23
2023-02-09T00:02:42.837Z,-2.17
2023-02-09T00:05:12.044Z,-2.20
2023-02-09T00:07:40.153Z,-2.23
2023-02-09T00:10:09.091Z,-2.32
2023-02-09T00:12:55.512Z,-2.27
2023-02-09T00:15:23.658Z,-2.43
2023-02-09T00:17:53.192Z,-2.51
2023-02-09T00:20:21.464Z,-2.66
2023-02-09T00:22:49.567Z,-2.65
2023-02-09T00:25:17.741Z,-2.79
2023-02-09T00:27:45.881Z,-2.87
2023-02-09T00:30:14.676Z,-3.01
2023-02-09T00:32:45.269Z,-2.95
2023-02-09T00:35:14.974Z,-2.99
2023-02-09T00:37:43.134Z,-3.01
2023-02-09T00:40:12.282Z,-3.26
2023-02-09T00:42:40.355Z,-3.17
2023-02-09T00:45:09.641Z,-3.13
2023-02-09T00:47:37.720Z,-3.25
2023-02-09T00:50:08.524Z,-3.22
2023-02-09T00:52:38.087Z,-3.28
2023-02-09T00:55:06.740Z,-3.37
2023-02-09T00:57:36.170Z,-3.48
2023-02-09T01:00:05.059Z,-3.56
2023-02-09T01:02:39.452Z,-3.67
2023-02-09T01:05:08.403Z,-3.65
2023-02-09T01:07:38.426Z,-3.64
2023-02-09T01:10:07.323Z,-3.71
2023-02-09T01:12:35.452Z,-3.69
2023-02-09T01:15:05.907Z,-3.93
2023-02-09T01:17:34.102Z,-4.03
2023-02-09T01:20:02.324Z,-3.95
2023-02-09T01:22:30.457Z,-4.08
2023-02-09T01:25:00.391Z,-4.18
2023-02-09T01:27:28.801Z,-4.15
2023-02-09T01:29:56.896Z,-4.20
2023-02-09T01:32:25.213Z,-4.25
2023-02-09T01:34:53.654Z,-4.24
2023-02-09T01:37:22.615Z,-4.35
2023-02-09T01:39:50.922Z,-4.37
2023-02-09T01:42:21.935Z,-4.42
2023-02-09T01:45:25.877Z,-4.58
2023-02-09T01:47:59.651Z,-4.55
2023-02-09T01:50:29.769Z,-4.60
2023-02-09T01:52:58.247Z,-4.70
2023-02-09T01:55:29.306Z,-4.77
2023-02-09T01:58:02.642Z,-4.85
2023-02-09T02:00:31.581Z,-4.99
2023-02-09T02:03:04.817Z,-5.15
2023-02-09T02:05:36.417Z,-5.10
2023-02-09T02:08:07.276Z,-5.16
2023-02-09T02:10:35.563Z,-5.04
2023-02-09T02:13:05.210Z,-5.04
2023-02-09T02:15:52.629Z,-5.04
2023-02-09T02:18:45.238Z,-5.05
2023-02-09T02:22:09.515Z,-5.11
2023-02-09T02:25:17.099Z,-5.16
2023-02-09T02:27:48.066Z,-5.28
2023-02-09T02:30:39.053Z,-5.31
2023-02-09T02:33:19.907Z,-5.44
2023-02-09T02:35:54.041Z,-5.39
2023-02-09T02:38:34.618Z,-5.39
2023-02-09T02:41:12.178Z,-5.36
2023-02-09T02:43:50.930Z,-5.39
2023-02-09T02:46:26.258Z,-5.46
2023-02-09T02:49:01.933Z,-5.50
2023-02-09T02:51:34.199Z,-5.55
2023-02-09T02:54:05.852Z,-5.58
2023-02-09T02:56:38.311Z,-5.71
2023-02-09T02:59:11.773Z,-5.72
2023-02-09T03:01:43.884Z,-5.79
2023-02-09T03:04:16.378Z,-5.85
2023-02-09T03:06:44.536Z,-5.81
2023-02-09T03:09:12.942Z,-5.90
2023-02-09T03:11:45.121Z,-5.87
2023-02-09T03:14:34.596Z,-5.89
2023-02-09T03:17:14.846Z,-5.99
2023-02-09T03:19:50.083Z,-6.10
2023-02-09T03:22:28.220Z,-6.09
2023-02-09T03:25:02.059Z,-6.05
2023-02-09T03:27:34.545Z,-6.11
2023-02-09T03:30:07.198Z,-6.11
2023-02-09T03:32:39.110Z,-6.08
2023-02-09T03:35:10.899Z,-6.17
2023-02-09T03:37:39.087Z,-6.19
2023-02-09T03:40:08.033Z,-6.14
2023-02-09T03:42:36.218Z,-6.23
2023-02-09T03:45:04.386Z,-6.33
2023-02-09T03:47:32.426Z,-6.28
2023-02-09T03:50:00.539Z,-6.35
2023-02-09T03:52:31.044Z,-6.35
2023-02-09T03:54:59.118Z,-6.32
2023-02-09T03:57:27.233Z,-6.35
2023-02-09T03:59:55.362Z,-6.45
2023-02-09T04:02:23.430Z,-6.41
2023-02-09T04:04:53.699Z,-6.47
2023-02-09T04:07:21.844Z,-6.51
2023-02-09T04:09:51.422Z,-6.45
2023-02-09T04:12:19.491Z,-6.48
2023-02-09T04:14:47.580Z,-6.47
2023-02-09T04:17:15.715Z,-6.47
2023-02-09T04:19:43.772Z,-6.57
2023-02-09T04:22:11.921Z,-6.55
2023-02-09T04:24:45.444Z,-6.52
2023-02-09T04:27:14.937Z,-6.55
2023-02-09T04:29:42.995Z,-6.59
2023-02-09T04:32:11.199Z,-6.76
2023-02-09T04:34:39.316Z,-6.78
2023-02-09T04:37:07.434Z,-6.70
2023-02-09T04:39:35.526Z,-6.69
2023-02-09T04:42:03.683Z,-6.69
2023-02-09T04:44:33.132Z,-6.70
2023-02-09T04:47:01.256Z,-6.82
2023-02-09T04:49:29.340Z,-6.83
2023-02-09T04:51:57.464Z,-6.96
2023-02-09T04:54:25.616Z,-7.07
2023-02-09T04:57:13.701Z,-7.04
2023-02-09T04:59:44.975Z,-7.02
2023-02-09T05:02:13.389Z,-6.97
2023-02-09T05:04:41.665Z,-6.94
2023-02-09T05:07:09.790Z,-6.89
2023-02-09T05:09:37.897Z,-6.92
2023-02-09T05:12:06.249Z,-6.95
2023-02-09T05:14:34.341Z,-7.00
2023-02-09T05:17:03.914Z,-7.01
2023-02-09T05:19:32.061Z,-7.13
2023-02-09T05:22:00.147Z,-7.15
2023-02-09T05:24:28.190Z,-7.14
2023-02-09T05:26:56.304Z,-7.05
2023-02-09T05:29:24.383Z,-7.08
2023-02-09T05:31:52.514Z,-7.13
2023-02-09T05:34:22.085Z,-7.09
2023-02-09T05:36:50.192Z,-7.04
2023-02-09T05:39:18.387Z,-7.12
2023-02-09T05:42:15.192Z,-7.25
2023-02-09T05:44:43.960Z,-7.16
2023-02-09T05:47:12.138Z,-7.11
2023-02-09T05:49:41.623Z,-7.10
2023-02-09T05:52:10.590Z,-7.07
2023-02-09T05:54:39.382Z,-7.22
2023-02-09T05:57:08.084Z,-7.19
2023-02-09T05:59:36.465Z,-7.26
2023-02-09T06:02:04.667Z,-7.22
2023-02-09T06:04:33.024Z,-7.23
2023-02-09T06:07:02.553Z,-7.20
2023-02-09T06:09:30.730Z,-7.18
2023-02-09T06:11:58.875Z,-7.24
2023-02-09T06:14:26.948Z,-7.25
2023-02-09T06:16:55.101Z,-7.26
2023-02-09T06:19:23.459Z,-7.20
2023-02-09T06:21:51.616Z,-7.18
2023-02-09T06:24:21.103Z,-7.26
2023-02-09T06:26:49.246Z,-7.20
2023-02-09T06:29:17.337Z,-7.14
2023-02-09T06:31:45.579Z,-7.09
2023-02-09T06:34:13.836Z,-7.05
2023-02-09T06:36:41.931Z,-7.02
2023-02-09T06:39:11.145Z,-6.96
2023-02-09T06:41:40.729Z,-6.86
2023-02-09T06:44:08.852Z,-6.71
2023-02-09T06:46:36.938Z,-6.56
2023-02-09T06:49:05.096Z,-6.54
2023-02-09T06:51:33.598Z,-6.42
2023-02-09T06:54:01.949Z,-6.23
2023-02-09T06:56:30.076Z,-6.02
2023-02-09T06:58:59.561Z,-5.90
2023-02-09T07:01:27.735Z,-5.65
2023-02-09T07:03:55.986Z,-5.47
2023-02-09T07:06:24.135Z,-5.19
2023-02-09T07:08:52.312Z,-5.01
2023-02-09T07:11:20.924Z,-4.76
2023-02-09T07:13:49.551Z,-4.51
2023-02-09T07:16:19.182Z,-4.31
2023-02-09T07:18:47.372Z,-4.13
2023-02-09T07:21:18.734Z,-3.90
2023-02-09T07:23:47.307Z,-3.77
2023-02-09T07:26:18.017Z,-3.53
2023-02-09T07:28:46.132Z,-3.19
2023-02-09T07:31:16.555Z,-2.99
2023-02-09T07:33:46.550Z,-2.71
2023-02-09T07:36:16.521Z,-2.48
2023-02-09T07:38:45.070Z,-2.35
2023-02-09T07:41:16.781Z,-2.13
2023-02-09T07:43:45.411Z,-2.01
2023-02-09T07:46:16.538Z,-1.73
2023-02-09T07:48:46.135Z,-1.76
2023-02-09T07:51:15.173Z,-1.46
2023-02-09T07:53:43.605Z,-1.30
2023-02-09T07:56:11.799Z,-1.27
2023-02-09T07:58:40.054Z,-1.01
2023-02-09T08:01:11.456Z,-0.52
2023-02-09T08:03:40.351Z,-0.37
2023-02-09T08:06:19.624Z,-0.22
2023-02-09T08:08:49.510Z,0.02
2023-02-09T08:11:21.341Z,0.23
2023-02-09T08:13:51.766Z,0.45
2023-02-09T08:16:22.456Z,0.55
2023-02-09T08:18:55.346Z,0.63
2023-02-09T08:21:25.952Z,0.71
2023-02-09T08:23:58.405Z,0.85
2023-02-09T08:26:26.832Z,1.03
2023-02-09T08:28:55.502Z,1.02
2023-02-09T08:31:23.825Z,1.33
2023-02-09T08:33:52.194Z,1.19
2023-02-09T08:36:21.852Z,0.51
2023-02-09T08:38:51.402Z,1.17
2023-02-09T08:41:20.473Z,1.69
2023-02-09T08:43:49.702Z,1.65
2023-02-09T08:46:17.908Z,1.99
2023-02-09T08:48:47.481Z,1.86
2023-02-09T08:51:17.737Z,2.21
2023-02-09T08:53:52.246Z,2.62
2023-02-09T08:56:23.808Z,2.60
2023-02-09T08:58:52.026Z,2.92
2023-02-09T09:01:22.090Z,3.10
2023-02-09T09:03:50.293Z,3.50
2023-02-09T09:06:18.476Z,3.66
2023-02-09T09:08:46.561Z,3.73
2023-02-09T09:11:14.994Z,4.09
2023-02-09T09:13:44.908Z,4.22
2023-02-09T09:16:17.322Z,4.30
2023-02-09T09:18:46.243Z,4.30
2023-02-09T09:21:16.045Z,4.57
2023-02-09T09:23:44.324Z,4.28
2023-02-09T09:26:12.637Z,4.50
2023-02-09T09:28:40.838Z,4.87
2023-02-09T09:31:12.515Z,5.24
2023-02-09T09:33:41.821Z,5.08
2023-02-09T09:36:10.668Z,5.16
2023-02-09T09:38:40.282Z,5.58
2023-02-09T09:41:19.974Z,5.60
2023-02-09T09:43:48.863Z,5.51
2023-02-09T09:46:21.897Z,5.92
2023-02-09T09:48:53.159Z,5.86
2023-02-09T09:51:27.602Z,6.13
2023-02-09T09:53:56.960Z,6.28
2023-02-09T09:56:27.140Z,6.18
2023-02-09T09:58:55.719Z,6.64
2023-02-09T10:01:28.734Z,7.04
2023-02-09T10:04:00.250Z,7.40
2023-02-09T10:06:33.841Z,7.70
2023-02-09T10:09:05.396Z,7.45
2023-02-09T10:11:40.387Z,7.85
2023-02-09T10:14:10.588Z,7.66
2023-02-09T10:16:46.308Z,7.96
2023-02-09T10:19:22.462Z,7.74
2023-02-09T10:21:50.921Z,7.24
2023-02-09T10:24:23.997Z,7.72
2023-02-09T10:27:08.809Z,7.87
2023-02-09T10:29:37.681Z,7.86
2023-02-09T10:32:15.652Z,7.84
2023-02-09T10:34:47.972Z,8.42
2023-02-09T10:37:25.506Z,8.82
2023-02-09T10:40:03.079Z,9.12
2023-02-09T10:42:34.016Z,9.11
2023-02-09T10:45:08.719Z,9.35
2023-02-09T10:47:38.216Z,8.84
2023-02-09T10:50:17.246Z,8.90
2023-02-09T10:52:56.520Z,8.89
2023-02-09T10:55:28.626Z,8.94
2023-02-09T10:58:12.788Z,8.89
2023-02-09T11:00:50.476Z,9.68
2023-02-09T11:03:22.560Z,9.23
2023-02-09T11:06:00.777Z,9.37
2023-02-09T11:08:39.185Z,9.88
2023-02-09T11:11:14.546Z,10.15
2023-02-09T11:13:43.424Z,9.46
2023-02-09T11:16:41.529Z,9.98
2023-02-09T11:19:22.869Z,9.94
2023-02-09T11:22:00.810Z,9.77
2023-02-09T11:24:46.341Z,9.03
2023-02-09T11:27:29.767Z,9.10
2023-02-09T11:30:13.965Z,10.66
2023-02-09T11:32:49.531Z,9.79
2023-02-09T11:35:23.536Z,9.70
2023-02-09T11:37:57.594Z,9.83
2023-02-09T11:40:32.682Z,10.64
2023-02-09T11:43:11.726Z,10.94
2023-02-09T11:45:45.172Z,10.87
2023-02-09T11:48:20.782Z,10.52
2023-02-09T11:50:59.055Z,9.64
2023-02-09T11:53:35.002Z,10.66
2023-02-09T11:56:05.486Z,10.06
2023-02-09T11:58:46.918Z,10.04
2023-02-09T12:01:23.472Z,9.40
2023-02-09T12:04:06.676Z,9.41
2023-02-09T12:06:40.956Z,9.87
2023-02-09T12:09:27.650Z,10.75
2023-02-09T12:12:06.846Z,9.97
2023-02-09T12:14:56.630Z,9.75
2023-02-09T12:17:32.476Z,9.38
2023-02-09T12:20:02.732Z,9.82
2023-02-09T12:23:04.543Z,9.37
2023-02-09T12:25:37.967Z,9.13
2023-02-09T12:28:18.437Z,9.33
2023-02-09T12:31:07.232Z,10.16
2023-02-09T12:33:37.878Z,10.12
2023-02-09T12:36:28.492Z,9.47
2023-02-09T12:39:23.911Z,9.10
2023-02-09T12:42:30.219Z,8.84
2023-02-09T12:45:00.701Z,9.31
2023-02-09T12:47:58.643Z,9.95
2023-02-09T12:50:45.939Z,9.62
2023-02-09T12:53:46.030Z,9.31
2023-02-09T12:56:34.234Z,9.53
2023-02-09T12:59:24.343Z,9.64
2023-02-09T13:02:15.986Z,8.93
2023-02-09T13:04:55.002Z,9.52
2023-02-09T13:07:30.607Z,9.29
2023-02-09T13:10:01.835Z,9.14
2023-02-09T13:12:39.190Z,9.23
2023-02-09T13:15:14.059Z,8.47
2023-02-09T13:17:50.977Z,9.57
2023-02-09T13:20:57.023Z,8.38
2023-02-09T13:23:34.622Z,7.80
2023-02-09T13:26:16.828Z,8.15
2023-02-09T13:28:46.658Z,8.45
2023-02-09T13:31:26.024Z,8.31
2023-02-09T13:34:00.611Z,8.04
2023-02-09T13:36:39.129Z,8.37
2023-02-09T13:39:22.366Z,8.57
2023-02-09T13:41:53.762Z,8.62
2023-02-09T13:44:27.022Z,8.22
2023-02-09T13:46:58.007Z,8.11
2023-02-09T13:49:28.253Z,8.88
2023-02-09T13:52:17.195Z,8.24
2023-02-09T13:54:45.813Z,8.00
2023-02-09T13:57:29.753Z,7.50
2023-02-09T14:00:08.256Z,7.72
2023-02-09T14:02:50.304Z,8.09
2023-02-09T14:05:30.071Z,7.78
2023-02-09T14:07:58.704Z,7.05
2023-02-09T14:10:29.009Z,6.98
2023-02-09T14:13:01.984Z,6.91
2023-02-09T14:15:57.512Z,7.34
2023-02-09T14:18:34.261Z,7.00
2023-02-09T14:21:04.726Z,6.91
2023-02-09T14:23:35.347Z,7.26
2023-02-09T14:26:06.119Z,7.07
2023-02-09T14:28:36.184Z,7.30
2023-02-09T14:31:07.377Z,6.89
2023-02-09T14:33:38.703Z,6.51
2023-02-09T14:36:07.743Z,6.59
2023-02-09T14:38:38.737Z,6.24
2023-02-09T14:41:27.987Z,6.54
2023-02-09T14:44:01.522Z,6.38
2023-02-09T14:46:48.675Z,6.18
2023-02-09T14:49:17.426Z,5.82
2023-02-09T14:51:46.335Z,5.84
2023-02-09T14:54:25.758Z,5.85
2023-02-09T14:56:56.472Z,5.85
2023-02-09T14:59:26.022Z,5.32
2023-02-09T15:01:56.120Z,5.33
2023-02-09T15:04:24.286Z,5.18
2023-02-09T15:07:01.532Z,5.06
2023-02-09T15:09:36.008Z,4.72
2023-02-09T15:12:07.548Z,4.87
2023-02-09T15:14:42.575Z,4.89
2023-02-09T15:17:18.147Z,4.71
2023-02-09T15:19:47.105Z,4.45
2023-02-09T15:22:17.321Z,4.28
2023-02-09T15:24:47.643Z,4.00
2023-02-09T15:27:27.892Z,3.69
2023-02-09T15:30:00.162Z,3.56
2023-02-09T15:32:30.120Z,3.48
2023-02-09T15:34:58.634Z,3.24
2023-02-09T15:37:29.365Z,3.12
2023-02-09T15:40:01.219Z,2.97
2023-02-09T15:42:46.708Z,2.57
2023-02-09T15:45:34.548Z,2.96
2023-02-09T15:48:05.143Z,3.69
2023-02-09T15:50:36.305Z,4.97
2023-02-09T15:53:09.400Z,5.72
2023-02-09T15:55:38.468Z,5.59
2023-02-09T15:58:14.678Z,5.41
2023-02-09T16:00:43.521Z,5.38
2023-02-09T16:03:16.531Z,5.88
2023-02-09T16:05:45.514Z,5.60
2023-02-09T16:08:19.037Z,5.19
2023-02-09T16:10:48.643Z,5.28
2023-02-09T16:13:19.275Z,4.55
2023-02-09T16:15:51.603Z,4.98
2023-02-09T16:18:21.753Z,5.19
2023-02-09T16:20:53.692Z,5.38
2023-02-09T16:23:24.176Z,5.18
2023-02-09T16:25:55.570Z,5.30
2023-02-09T16:28:24.655Z,4.73
2023-02-09T16:30:55.286Z,5.11
2023-02-09T16:33:26.854Z,3.48
2023-02-09T16:35:58.078Z,2.02
2023-02-09T16:38:27.365Z,1.27
2023-02-09T16:40:57.090Z,0.83
2023-02-09T16:43:26.708Z,0.47
2023-02-09T16:46:03.285Z,0.13
2023-02-09T16:48:35.840Z,-0.21
2023-02-09T16:51:04.487Z,-0.42
2023-02-09T16:53:37.284Z,-0.47
2023-02-09T16:56:11.077Z,-0.60
2023-02-09T16:58:41.531Z,-0.67
2023-02-09T17:01:18.589Z,-0.89
2023-02-09T17:03:50.847Z,-0.96
2023-02-09T17:06:21.889Z,-1.00
2023-02-09T17:08:51.667Z,-1.05
2023-02-09T17:11:22.369Z,-1.14
2023-02-09T17:13:51.895Z,-1.25
2023-02-09T17:16:23.053Z,-1.30
2023-02-09T17:18:56.629Z,-1.40
2023-02-09T17:21:27.804Z,-1.44
2023-02-09T17:23:58.016Z,-1.50
2023-02-09T17:26:27.637Z,-1.65
2023-02-09T17:28:57.018Z,-1.74
2023-02-09T17:31:28.966Z,-1.72
2023-02-09T17:34:01.233Z,-1.78
2023-02-09T17:36:31.974Z,-1.85
2023-02-09T17:39:03.291Z,-1.85
2023-02-09T17:41:37.257Z,-1.93
2023-02-09T17:44:28.610Z,-2.02
2023-02-09T17:47:07.821Z,-2.16
2023-02-09T17:49:38.512Z,-2.24
2023-02-09T17:52:08.611Z,-2.30
2023-02-09T17:54:38.857Z,-2.36
2023-02-09T17:57:08.810Z,-2.40
2023-02-09T17:59:41.954Z,-2.53
2023-02-09T18:02:17.119Z,-2.50
2023-02-09T18:04:48.901Z,-2.51
2023-02-09T18:07:21.384Z,-2.56
2023-02-09T18:09:52.640Z,-2.63
2023-02-09T18:12:28.300Z,-2.64
2023-02-09T18:14:57.728Z,-2.71
2023-02-09T18:17:27.444Z,-2.75
2023-02-09T18:19:58.789Z,-2.74
2023-02-09T18:22:30.763Z,-2.81
2023-02-09T18:25:14.856Z,-2.84
2023-02-09T18:27:47.841Z,-2.84
2023-02-09T18:30:17.610Z,-2.90
2023-02-09T18:32:48.938Z,-2.95
2023-02-09T18:35:25.304Z,-3.00
2023-02-09T18:37:54.638Z,-3.05
2023-02-09T18:40:24.869Z,-3.11
2023-02-09T18:42:54.542Z,-3.14
2023-02-09T18:45:25.594Z,-3.13
2023-02-09T18:47:56.377Z,-3.19
2023-02-09T18:50:30.632Z,-3.26
2023-02-09T18:53:02.107Z,-3.30
2023-02-09T18:55:36.438Z,-3.31
2023-02-09T18:58:09.804Z,-3.31
2023-02-09T19:00:41.208Z,-3.34
2023-02-09T19:03:12.097Z,-3.44
2023-02-09T19:05:44.079Z,-3.44
2023-02-09T19:08:18.110Z,-3.43
2023-02-09T19:10:49.584Z,-3.47
2023-02-09T19:13:19.480Z,-3.58
2023-02-09T19:15:50.304Z,-3.60
2023-02-09T19:18:20.701Z,-3.69
2023-02-09T19:20:56.065Z,-3.69
2023-02-09T19:23:32.031Z,-3.74
2023-02-09T19:26:06.484Z,-3.75
2023-02-09T19:28:37.403Z,-3.81
2023-02-09T19:31:16.482Z,-3.86
2023-02-09T19:33:48.310Z,-3.88
2023-02-09T19:36:23.257Z,-3.94
2023-02-09T19:38:54.772Z,-4.01
2023-02-09T19:41:26.165Z,-4.08
2023-02-09T19:43:57.238Z,-4.08
2023-02-09T19:46:37.298Z,-4.09
2023-02-09T19:49:09.310Z,-4.11
2023-02-09T19:51:42.679Z,-4.12
2023-02-09T19:54:19.643Z,-4.17
2023-02-09T19:56:48.866Z,-4.19
2023-02-09T19:59:20.383Z,-4.20
2023-02-09T20:01:52.660Z,-4.21
2023-02-09T20:04:22.912Z,-4.32
2023-02-09T20:06:54.824Z,-4.38
2023-02-09T20:09:25.466Z,-4.36
2023-02-09T20:11:58.687Z,-4.35
2023-02-09T20:14:31.757Z,-4.36
2023-02-09T20:17:03.416Z,-4.45
2023-02-09T20:19:37.062Z,-4.45
2023-02-09T20:22:10.596Z,-4.49
2023-02-09T20:24:41.533Z,-4.54
2023-02-09T20:27:12.351Z,-4.56
2023-02-09T20:29:43.525Z,-4.58
2023-02-09T20:32:15.005Z,-4.60
2023-02-09T20:34:44.394Z,-4.61
2023-02-09T20:37:15.737Z,-4.62
2023-02-09T20:39:45.422Z,-4.68
2023-02-09T20:42:32.768Z,-4.68
2023-02-09T20:45:18.951Z,-4.66
2023-02-09T20:47:49.101Z,-4.72
2023-02-09T20:50:20.751Z,-4.79
2023-02-09T20:52:52.327Z,-4.80
2023-02-09T20:55:23.174Z,-4.83
2023-02-09T20:57:52.581Z,-4.86
2023-02-09T21:00:23.039Z,-4.84
2023-02-09T21:02:56.462Z,-4.90
2023-02-09T21:05:25.441Z,-4.91
2023-02-09T21:07:58.154Z,-4.96
2023-02-09T21:10:28.048Z,-5.00
2023-02-09T21:12:59.399Z,-4.98
2023-02-09T21:15:33.316Z,-5.07
2023-02-09T21:18:10.037Z,-5.12
2023-02-09T21:20:42.817Z,-5.06
2023-02-09T21:23:13.919Z,-5.10
2023-02-09T21:25:44.320Z,-5.10
2023-02-09T21:28:13.554Z,-5.22
2023-02-09T21:30:44.753Z,-5.22
2023-02-09T21:33:13.383Z,-5.26
2023-02-09T21:35:42.101Z,-5.22
2023-02-09T21:38:10.763Z,-5.26
2023-02-09T21:40:40.628Z,-5.32
2023-02-09T21:43:09.141Z,-5.30
2023-02-09T21:45:41.513Z,-5.30
2023-02-09T21:48:09.859Z,-5.30
2023-02-09T21:50:38.080Z,-5.27
2023-02-09T21:53:06.341Z,-5.31
2023-02-09T21:55:35.045Z,-5.38
2023-02-09T21:58:04.611Z,-5.41
2023-02-09T22:00:32.970Z,-5.43
2023-02-09T22:30:05.847Z,-5.71
2023-02-09T22:32:34.038Z,-5.72
2023-02-09T22:35:02.182Z,-5.75
2023-02-09T22:37:30.445Z,-5.76
2023-02-09T22:39:58.888Z,-5.75
2023-02-09T22:42:27.096Z,-5.78
2023-02-09T22:44:55.213Z,-5.80
2023-02-09T22:47:24.721Z,-5.83
2023-02-09T22:49:52.967Z,-5.85
2023-02-09T22:52:21.068Z,-5.88
2023-02-09T22:54:49.193Z,-5.85
2023-02-09T22:57:17.342Z,-5.92
2023-02-09T22:59:45.510Z,-5.92
2023-02-09T23:02:13.643Z,-5.95
2023-02-09T23:04:43.276Z,-6.01
2023-02-09T23:07:11.551Z,-5.98
2023-02-09T23:09:39.772Z,-5.96
2023-02-09T23:12:08.115Z,-6.01
2023-02-09T23:14:36.443Z,-6.05
2023-02-09T23:17:04.641Z,-6.13
2023-02-09T23:19:32.806Z,-6.18
2023-02-09T23:22:02.307Z,-6.18
2023-02-09T23:24:30.504Z,-6.11
2023-02-09T23:26:58.933Z,-6.16
2023-02-09T23:29:28.112Z,-6.19
2023-02-09T23:31:56.287Z,-6.20
2023-02-09T23:34:24.540Z,-6.23
2023-02-09T23:36:52.760Z,-6.24
2023-02-09T23:39:23.670Z,-6.21
2023-02-09T23:41:51.907Z,-6.22
2023-02-09T23:44:20.546Z,-6.31
2023-02-09T23:46:48.883Z,-6.30
2023-02-09T23:49:17.015Z,-6.30
2023-02-09T23:51:45.725Z,-6.32
2023-02-09T23:54:13.945Z,-6.29
2023-02-09T23:56:45.546Z,-6.36
2023-02-09T23:59:16.392Z,-6.33
